sensor_id;sensor_type;location;lat;lon;timestamp;P1;durP1;ratioP1;P2;durP2;ratioP2
840;SDS011;406;48.566;13.450;2023-02-12T00:00:39;36.43;;;24.90;;
840;SDS011;406;48.566;13.450;2023-02-12T00:03:06;38.75;;;24.42;;
840;SDS011;406;48.566;13.450;2023-02-12T00:05:36;34.83;;;23.00;;
840;SDS011;406;48.566;13.450;2023-02-12T00:08:03;34.25;;;23.27;;
840;SDS011;406;48.566;13.450;2023-02-12T00:10:29;32.00;;;24.43;;
840;SDS011;406;48.566;13.450;2023-02-12T00:12:56;33.23;;;23.37;;
840;SDS011;406;48.566;13.450;2023-02-12T00:15:22;30.80;;;23.73;;
840;SDS011;406;48.566;13.450;2023-02-12T00:17:49;36.87;;;23.93;;
840;SDS011;406;48.566;13.450;2023-02-12T00:20:16;41.27;;;25.80;;
840;SDS011;406;48.566;13.450;2023-02-12T00:22:42;42.13;;;24.57;;
840;SDS011;406;48.566;13.450;2023-02-12T00:25:09;33.80;;;23.63;;
840;SDS011;406;48.566;13.450;2023-02-12T00:27:35;42.03;;;27.23;;
840;SDS011;406;48.566;13.450;2023-02-12T00:30:02;34.53;;;23.98;;
840;SDS011;406;48.566;13.450;2023-02-12T00:32:28;33.00;;;23.30;;
840;SDS011;406;48.566;13.450;2023-02-12T00:34:56;34.37;;;24.20;;
840;SDS011;406;48.566;13.450;2023-02-12T00:37:23;35.77;;;25.23;;
840;SDS011;406;48.566;13.450;2023-02-12T00:39:52;33.88;;;23.92;;
840;SDS011;406;48.566;13.450;2023-02-12T00:42:18;37.00;;;24.13;;
840;SDS011;406;48.566;13.450;2023-02-12T00:44:44;36.50;;;23.17;;
840;SDS011;406;48.566;13.450;2023-02-12T00:47:11;38.53;;;24.67;;
840;SDS011;406;48.566;13.450;2023-02-12T00:49:38;43.23;;;26.83;;
840;SDS011;406;48.566;13.450;2023-02-12T00:52:04;39.72;;;24.55;;
840;SDS011;406;48.566;13.450;2023-02-12T00:54:31;41.10;;;25.52;;
840;SDS011;406;48.566;13.450;2023-02-12T00:56:57;35.75;;;23.10;;
840;SDS011;406;48.566;13.450;2023-02-12T00:59:27;40.57;;;25.77;;
840;SDS011;406;48.566;13.450;2023-02-12T01:01:55;32.73;;;24.60;;
840;SDS011;406;48.566;13.450;2023-02-12T01:04:22;42.97;;;25.37;;
840;SDS011;406;48.566;13.450;2023-02-12T01:06:49;35.17;;;24.77;;
840;SDS011;406;48.566;13.450;2023-02-12T01:09:17;36.53;;;23.40;;
840;SDS011;406;48.566;13.450;2023-02-12T01:11:43;34.03;;;23.63;;
840;SDS011;406;48.566;13.450;2023-02-12T01:14:10;33.37;;;24.50;;
840;SDS011;406;48.566;13.450;2023-02-12T01:16:37;35.83;;;24.30;;
840;SDS011;406;48.566;13.450;2023-02-12T01:19:05;42.53;;;26.48;;
840;SDS011;406;48.566;13.450;2023-02-12T01:21:32;36.50;;;25.10;;
840;SDS011;406;48.566;13.450;2023-02-12T01:24:00;35.73;;;25.03;;
840;SDS011;406;48.566;13.450;2023-02-12T01:26:28;33.67;;;23.40;;
840;SDS011;406;48.566;13.450;2023-02-12T01:28:57;38.97;;;24.80;;
840;SDS011;406;48.566;13.450;2023-02-12T01:31:27;35.60;;;23.73;;
840;SDS011;406;48.566;13.450;2023-02-12T01:33:56;41.77;;;26.17;;
840;SDS011;406;48.566;13.450;2023-02-12T01:36:24;34.57;;;23.17;;
840;SDS011;406;48.566;13.450;2023-02-12T01:38:51;33.40;;;23.73;;
840;SDS011;406;48.566;13.450;2023-02-12T01:41:22;39.93;;;25.30;;
840;SDS011;406;48.566;13.450;2023-02-12T01:46:55;35.70;;;24.93;;
840;SDS011;406;48.566;13.450;2023-02-12T01:49:23;33.43;;;23.40;;
840;SDS011;406;48.566;13.450;2023-02-12T01:51:53;39.10;;;25.90;;
840;SDS011;406;48.566;13.450;2023-02-12T01:54:24;35.33;;;24.23;;
840;SDS011;406;48.566;13.450;2023-02-12T01:56:51;33.35;;;24.55;;
840;SDS011;406;48.566;13.450;2023-02-12T01:59:18;36.03;;;23.93;;
840;SDS011;406;48.566;13.450;2023-02-12T02:01:45;37.37;;;26.27;;
840;SDS011;406;48.566;13.450;2023-02-12T02:04:13;37.70;;;26.03;;
840;SDS011;406;48.566;13.450;2023-02-12T02:06:46;44.07;;;24.77;;
840;SDS011;406;48.566;13.450;2023-02-12T02:09:16;41.00;;;25.80;;
840;SDS011;406;48.566;13.450;2023-02-12T02:11:44;42.20;;;28.53;;
840;SDS011;406;48.566;13.450;2023-02-12T02:14:29;42.27;;;26.90;;
840;SDS011;406;48.566;13.450;2023-02-12T02:17:19;43.27;;;27.00;;
840;SDS011;406;48.566;13.450;2023-02-12T02:28:08;40.37;;;26.47;;
840;SDS011;406;48.566;13.450;2023-02-12T02:33:36;41.40;;;27.47;;
840;SDS011;406;48.566;13.450;2023-02-12T02:36:24;35.03;;;24.20;;
840;SDS011;406;48.566;13.450;2023-02-12T02:38:56;37.60;;;24.50;;
840;SDS011;406;48.566;13.450;2023-02-12T02:41:36;30.47;;;21.47;;
840;SDS011;406;48.566;13.450;2023-02-12T02:44:09;41.20;;;24.83;;
840;SDS011;406;48.566;13.450;2023-02-12T02:46:47;35.30;;;22.90;;
840;SDS011;406;48.566;13.450;2023-02-12T02:49:16;34.87;;;23.70;;
840;SDS011;406;48.566;13.450;2023-02-12T02:51:48;34.33;;;23.63;;
840;SDS011;406;48.566;13.450;2023-02-12T02:54:20;37.00;;;23.47;;
840;SDS011;406;48.566;13.450;2023-02-12T02:57:05;40.40;;;26.13;;
840;SDS011;406;48.566;13.450;2023-02-12T02:59:36;33.73;;;26.33;;
840;SDS011;406;48.566;13.450;2023-02-12T03:02:15;34.70;;;22.60;;
840;SDS011;406;48.566;13.450;2023-02-12T03:04:46;29.93;;;22.83;;
840;SDS011;406;48.566;13.450;2023-02-12T03:07:16;32.03;;;23.87;;
840;SDS011;406;48.566;13.450;2023-02-12T03:09:48;32.87;;;23.87;;
840;SDS011;406;48.566;13.450;2023-02-12T03:12:20;34.60;;;24.10;;
840;SDS011;406;48.566;13.450;2023-02-12T03:14:53;31.93;;;23.23;;
840;SDS011;406;48.566;13.450;2023-02-12T03:17:27;34.30;;;22.70;;
840;SDS011;406;48.566;13.450;2023-02-12T03:20:41;34.87;;;23.77;;
840;SDS011;406;48.566;13.450;2023-02-12T03:23:24;33.93;;;24.93;;
840;SDS011;406;48.566;13.450;2023-02-12T03:28:30;33.50;;;22.25;;
840;SDS011;406;48.566;13.450;2023-02-12T03:31:06;37.93;;;26.50;;
840;SDS011;406;48.566;13.450;2023-02-12T03:36:23;42.93;;;26.10;;
840;SDS011;406;48.566;13.450;2023-02-12T03:38:56;32.43;;;25.03;;
840;SDS011;406;48.566;13.450;2023-02-12T03:41:25;38.13;;;25.23;;
840;SDS011;406;48.566;13.450;2023-02-12T03:44:09;30.33;;;21.60;;
840;SDS011;406;48.566;13.450;2023-02-12T03:47:03;37.77;;;25.77;;
840;SDS011;406;48.566;13.450;2023-02-12T03:49:37;38.60;;;24.70;;
840;SDS011;406;48.566;13.450;2023-02-12T03:52:08;37.80;;;23.33;;
840;SDS011;406;48.566;13.450;2023-02-12T03:54:35;33.10;;;24.20;;
840;SDS011;406;48.566;13.450;2023-02-12T03:59:34;37.23;;;25.10;;
840;SDS011;406;48.566;13.450;2023-02-12T04:02:01;34.73;;;24.67;;
840;SDS011;406;48.566;13.450;2023-02-12T04:04:27;39.07;;;25.27;;
840;SDS011;406;48.566;13.450;2023-02-12T04:06:54;39.40;;;26.43;;
840;SDS011;406;48.566;13.450;2023-02-12T04:09:21;33.60;;;23.17;;
840;SDS011;406;48.566;13.450;2023-02-12T04:17:31;41.07;;;25.83;;
840;SDS011;406;48.566;13.450;2023-02-12T04:20:24;41.13;;;26.30;;
840;SDS011;406;48.566;13.450;2023-02-12T04:37:21;30.90;;;24.70;;
840;SDS011;406;48.566;13.450;2023-02-12T04:40:02;40.80;;;24.65;;
840;SDS011;406;48.566;13.450;2023-02-12T04:42:30;34.33;;;25.97;;
840;SDS011;406;48.566;13.450;2023-02-12T04:44:56;38.72;;;24.35;;
840;SDS011;406;48.566;13.450;2023-02-12T04:47:24;31.53;;;23.50;;
840;SDS011;406;48.566;13.450;2023-02-12T04:49:51;33.67;;;23.90;;
840;SDS011;406;48.566;13.450;2023-02-12T04:52:17;34.40;;;25.07;;
840;SDS011;406;48.566;13.450;2023-02-12T04:54:44;41.08;;;26.58;;
840;SDS011;406;48.566;13.450;2023-02-12T04:57:10;39.27;;;27.17;;
840;SDS011;406;48.566;13.450;2023-02-12T04:59:37;35.00;;;25.00;;
840;SDS011;406;48.566;13.450;2023-02-12T05:02:03;38.73;;;27.10;;
840;SDS011;406;48.566;13.450;2023-02-12T05:04:30;41.90;;;28.70;;
840;SDS011;406;48.566;13.450;2023-02-12T05:06:56;40.00;;;27.30;;
840;SDS011;406;48.566;13.450;2023-02-12T05:09:23;39.27;;;26.70;;
840;SDS011;406;48.566;13.450;2023-02-12T05:11:49;42.40;;;27.87;;
840;SDS011;406;48.566;13.450;2023-02-12T05:14:15;48.30;;;29.47;;
840;SDS011;406;48.566;13.450;2023-02-12T05:16:42;38.00;;;26.53;;
840;SDS011;406;48.566;13.450;2023-02-12T05:19:09;42.00;;;25.50;;
840;SDS011;406;48.566;13.450;2023-02-12T05:21:36;40.47;;;28.03;;
840;SDS011;406;48.566;13.450;2023-02-12T05:24:03;35.88;;;25.92;;
840;SDS011;406;48.566;13.450;2023-02-12T05:26:29;36.40;;;25.70;;
840;SDS011;406;48.566;13.450;2023-02-12T05:28:56;35.40;;;24.70;;
840;SDS011;406;48.566;13.450;2023-02-12T05:31:22;39.10;;;25.20;;
840;SDS011;406;48.566;13.450;2023-02-12T05:33:49;36.17;;;24.97;;
840;SDS011;406;48.566;13.450;2023-02-12T05:36:17;35.17;;;22.98;;
840;SDS011;406;48.566;13.450;2023-02-12T05:38:46;36.00;;;26.20;;
840;SDS011;406;48.566;13.450;2023-02-12T05:41:20;41.23;;;26.00;;
840;SDS011;406;48.566;13.450;2023-02-12T05:43:48;34.60;;;23.10;;
840;SDS011;406;48.566;13.450;2023-02-12T05:46:15;35.27;;;23.80;;
840;SDS011;406;48.566;13.450;2023-02-12T05:48:43;33.17;;;24.40;;
840;SDS011;406;48.566;13.450;2023-02-12T05:51:13;48.22;;;23.75;;
840;SDS011;406;48.566;13.450;2023-02-12T05:53:42;43.37;;;24.93;;
840;SDS011;406;48.566;13.450;2023-02-12T05:56:09;37.37;;;24.07;;
840;SDS011;406;48.566;13.450;2023-02-12T05:58:38;36.38;;;24.52;;
840;SDS011;406;48.566;13.450;2023-02-12T06:01:09;34.83;;;24.37;;
840;SDS011;406;48.566;13.450;2023-02-12T06:03:43;37.30;;;26.53;;
840;SDS011;406;48.566;13.450;2023-02-12T06:06:09;38.60;;;24.23;;
840;SDS011;406;48.566;13.450;2023-02-12T06:08:36;37.80;;;25.58;;
840;SDS011;406;48.566;13.450;2023-02-12T06:11:04;37.70;;;25.45;;
840;SDS011;406;48.566;13.450;2023-02-12T06:13:32;41.50;;;25.37;;
840;SDS011;406;48.566;13.450;2023-02-12T06:15:59;38.20;;;27.00;;
840;SDS011;406;48.566;13.450;2023-02-12T06:18:26;39.00;;;26.90;;
840;SDS011;406;48.566;13.450;2023-02-12T06:20:52;42.43;;;25.70;;
840;SDS011;406;48.566;13.450;2023-02-12T06:23:23;40.80;;;27.47;;
840;SDS011;406;48.566;13.450;2023-02-12T06:25:50;41.90;;;26.63;;
840;SDS011;406;48.566;13.450;2023-02-12T06:28:20;42.08;;;26.10;;
840;SDS011;406;48.566;13.450;2023-02-12T06:30:47;40.00;;;24.85;;
840;SDS011;406;48.566;13.450;2023-02-12T06:33:13;35.97;;;24.98;;
840;SDS011;406;48.566;13.450;2023-02-12T06:35:40;37.33;;;24.08;;
840;SDS011;406;48.566;13.450;2023-02-12T06:38:06;35.80;;;25.03;;
840;SDS011;406;48.566;13.450;2023-02-12T06:40:33;40.35;;;25.73;;
840;SDS011;406;48.566;13.450;2023-02-12T06:42:59;38.33;;;27.37;;
840;SDS011;406;48.566;13.450;2023-02-12T06:45:26;39.65;;;25.85;;
840;SDS011;406;48.566;13.450;2023-02-12T06:47:52;40.53;;;25.33;;
840;SDS011;406;48.566;13.450;2023-02-12T06:50:19;36.97;;;25.95;;
840;SDS011;406;48.566;13.450;2023-02-12T06:52:45;41.50;;;26.42;;
840;SDS011;406;48.566;13.450;2023-02-12T06:55:12;39.63;;;26.75;;
840;SDS011;406;48.566;13.450;2023-02-12T06:57:39;40.10;;;26.47;;
840;SDS011;406;48.566;13.450;2023-02-12T07:00:05;38.33;;;25.93;;
840;SDS011;406;48.566;13.450;2023-02-12T07:02:34;43.53;;;28.63;;
840;SDS011;406;48.566;13.450;2023-02-12T07:05:04;36.00;;;25.80;;
840;SDS011;406;48.566;13.450;2023-02-12T07:07:30;33.90;;;24.73;;
840;SDS011;406;48.566;13.450;2023-02-12T07:09:57;36.80;;;26.00;;
840;SDS011;406;48.566;13.450;2023-02-12T07:12:23;36.60;;;26.37;;
840;SDS011;406;48.566;13.450;2023-02-12T07:14:50;36.97;;;25.50;;
840;SDS011;406;48.566;13.450;2023-02-12T07:17:16;42.80;;;27.87;;
840;SDS011;406;48.566;13.450;2023-02-12T07:19:43;40.83;;;25.63;;
840;SDS011;406;48.566;13.450;2023-02-12T07:22:09;37.57;;;26.83;;
840;SDS011;406;48.566;13.450;2023-02-12T07:24:36;33.90;;;24.17;;
840;SDS011;406;48.566;13.450;2023-02-12T07:27:04;42.20;;;26.00;;
840;SDS011;406;48.566;13.450;2023-02-12T07:29:30;41.00;;;27.70;;
840;SDS011;406;48.566;13.450;2023-02-12T07:31:57;41.67;;;29.07;;
840;SDS011;406;48.566;13.450;2023-02-12T07:34:23;40.43;;;29.13;;
840;SDS011;406;48.566;13.450;2023-02-12T07:36:50;37.30;;;23.10;;
840;SDS011;406;48.566;13.450;2023-02-12T07:39:16;39.20;;;26.60;;
840;SDS011;406;48.566;13.450;2023-02-12T07:41:43;43.73;;;27.63;;
840;SDS011;406;48.566;13.450;2023-02-12T07:44:10;51.37;;;31.20;;
840;SDS011;406;48.566;13.450;2023-02-12T07:46:41;51.27;;;32.60;;
840;SDS011;406;48.566;13.450;2023-02-12T07:49:14;50.00;;;29.07;;
840;SDS011;406;48.566;13.450;2023-02-12T07:51:46;48.67;;;29.83;;
840;SDS011;406;48.566;13.450;2023-02-12T07:54:13;47.10;;;29.53;;
840;SDS011;406;48.566;13.450;2023-02-12T07:56:40;41.40;;;25.13;;
840;SDS011;406;48.566;13.450;2023-02-12T07:59:12;45.47;;;27.93;;
840;SDS011;406;48.566;13.450;2023-02-12T08:01:41;54.17;;;29.63;;
840;SDS011;406;48.566;13.450;2023-02-12T08:04:10;49.73;;;29.97;;
840;SDS011;406;48.566;13.450;2023-02-12T08:06:40;55.35;;;30.85;;
840;SDS011;406;48.566;13.450;2023-02-12T08:09:09;57.73;;;30.33;;
840;SDS011;406;48.566;13.450;2023-02-12T08:11:39;53.33;;;32.07;;
840;SDS011;406;48.566;13.450;2023-02-12T08:14:06;52.77;;;31.03;;
840;SDS011;406;48.566;13.450;2023-02-12T08:16:37;57.83;;;31.20;;
840;SDS011;406;48.566;13.450;2023-02-12T08:19:04;64.00;;;32.73;;
840;SDS011;406;48.566;13.450;2023-02-12T08:21:44;60.47;;;33.97;;
840;SDS011;406;48.566;13.450;2023-02-12T08:24:12;77.23;;;37.00;;
840;SDS011;406;48.566;13.450;2023-02-12T08:26:38;64.30;;;36.93;;
840;SDS011;406;48.566;13.450;2023-02-12T08:29:06;73.00;;;33.17;;
840;SDS011;406;48.566;13.450;2023-02-12T08:31:35;82.00;;;39.00;;
840;SDS011;406;48.566;13.450;2023-02-12T08:34:03;87.77;;;40.83;;
840;SDS011;406;48.566;13.450;2023-02-12T08:36:35;65.47;;;40.47;;
840;SDS011;406;48.566;13.450;2023-02-12T08:39:03;72.03;;;38.50;;
840;SDS011;406;48.566;13.450;2023-02-12T08:41:30;80.57;;;42.03;;
840;SDS011;406;48.566;13.450;2023-02-12T08:43:58;82.23;;;41.80;;
840;SDS011;406;48.566;13.450;2023-02-12T08:46:30;82.53;;;42.43;;
840;SDS011;406;48.566;13.450;2023-02-12T08:48:59;80.43;;;39.73;;
840;SDS011;406;48.566;13.450;2023-02-12T08:51:30;95.43;;;41.20;;
840;SDS011;406;48.566;13.450;2023-02-12T08:53:59;93.00;;;36.70;;
840;SDS011;406;48.566;13.450;2023-02-12T08:56:28;86.77;;;42.77;;
840;SDS011;406;48.566;13.450;2023-02-12T08:58:56;86.23;;;37.80;;
840;SDS011;406;48.566;13.450;2023-02-12T09:01:24;94.83;;;45.63;;
840;SDS011;406;48.566;13.450;2023-02-12T09:03:51;87.03;;;42.50;;
840;SDS011;406;48.566;13.450;2023-02-12T09:06:19;97.10;;;42.13;;
840;SDS011;406;48.566;13.450;2023-02-12T09:08:47;88.73;;;41.33;;
840;SDS011;406;48.566;13.450;2023-02-12T09:11:15;99.47;;;44.37;;
840;SDS011;406;48.566;13.450;2023-02-12T09:13:44;95.93;;;39.20;;
840;SDS011;406;48.566;13.450;2023-02-12T09:16:12;93.33;;;39.20;;
840;SDS011;406;48.566;13.450;2023-02-12T09:18:39;99.40;;;45.83;;
840;SDS011;406;48.566;13.450;2023-02-12T09:21:07;99.87;;;43.43;;
840;SDS011;406;48.566;13.450;2023-02-12T09:23:36;113.27;;;48.27;;
840;SDS011;406;48.566;13.450;2023-02-12T09:26:03;102.77;;;49.00;;
840;SDS011;406;48.566;13.450;2023-02-12T09:28:33;114.17;;;49.60;;
840;SDS011;406;48.566;13.450;2023-02-12T09:31:07;95.73;;;42.00;;
840;SDS011;406;48.566;13.450;2023-02-12T09:33:36;91.57;;;40.83;;
840;SDS011;406;48.566;13.450;2023-02-12T09:36:03;100.53;;;48.10;;
840;SDS011;406;48.566;13.450;2023-02-12T09:38:30;98.27;;;47.83;;
840;SDS011;406;48.566;13.450;2023-02-12T09:44:14;93.73;;;46.23;;
840;SDS011;406;48.566;13.450;2023-02-12T09:46:52;101.47;;;49.07;;
840;SDS011;406;48.566;13.450;2023-02-12T09:52:25;113.83;;;51.10;;
840;SDS011;406;48.566;13.450;2023-02-12T09:54:52;111.83;;;46.50;;
840;SDS011;406;48.566;13.450;2023-02-12T09:57:24;92.77;;;45.63;;
840;SDS011;406;48.566;13.450;2023-02-12T10:00:05;95.20;;;39.77;;
840;SDS011;406;48.566;13.450;2023-02-12T10:02:37;108.67;;;44.93;;
840;SDS011;406;48.566;13.450;2023-02-12T10:05:05;120.07;;;50.60;;
840;SDS011;406;48.566;13.450;2023-02-12T10:10:45;110.77;;;43.53;;
840;SDS011;406;48.566;13.450;2023-02-12T10:13:26;88.93;;;46.50;;
840;SDS011;406;48.566;13.450;2023-02-12T10:19:04;106.70;;;47.13;;
840;SDS011;406;48.566;13.450;2023-02-12T10:27:06;96.17;;;42.40;;
840;SDS011;406;48.566;13.450;2023-02-12T10:29:37;150.07;;;43.63;;
840;SDS011;406;48.566;13.450;2023-02-12T10:32:11;97.13;;;46.57;;
840;SDS011;406;48.566;13.450;2023-02-12T10:34:49;102.07;;;43.70;;
840;SDS011;406;48.566;13.450;2023-02-12T10:37:25;90.57;;;42.87;;
840;SDS011;406;48.566;13.450;2023-02-12T10:39:58;97.57;;;47.70;;
840;SDS011;406;48.566;13.450;2023-02-12T10:42:32;93.00;;;48.57;;
840;SDS011;406;48.566;13.450;2023-02-12T10:45:04;109.57;;;43.60;;
840;SDS011;406;48.566;13.450;2023-02-12T10:47:31;95.23;;;42.17;;
840;SDS011;406;48.566;13.450;2023-02-12T10:50:00;119.87;;;50.20;;
840;SDS011;406;48.566;13.450;2023-02-12T10:55:23;113.53;;;47.47;;
840;SDS011;406;48.566;13.450;2023-02-12T10:57:50;95.57;;;43.77;;
840;SDS011;406;48.566;13.450;2023-02-12T11:00:22;112.63;;;48.30;;
840;SDS011;406;48.566;13.450;2023-02-12T11:02:58;94.37;;;45.50;;
840;SDS011;406;48.566;13.450;2023-02-12T11:05:33;111.47;;;46.90;;
840;SDS011;406;48.566;13.450;2023-02-12T11:08:01;95.93;;;44.93;;
840;SDS011;406;48.566;13.450;2023-02-12T11:10:30;92.63;;;42.43;;
840;SDS011;406;48.566;13.450;2023-02-12T11:12:59;95.90;;;45.00;;
840;SDS011;406;48.566;13.450;2023-02-12T11:15:26;99.07;;;45.00;;
840;SDS011;406;48.566;13.450;2023-02-12T11:18:00;107.20;;;45.13;;
840;SDS011;406;48.566;13.450;2023-02-12T11:20:40;94.83;;;45.30;;
840;SDS011;406;48.566;13.450;2023-02-12T11:25:54;94.13;;;42.93;;
840;SDS011;406;48.566;13.450;2023-02-12T11:28:26;86.73;;;39.60;;
840;SDS011;406;48.566;13.450;2023-02-12T11:30:55;83.27;;;45.30;;
840;SDS011;406;48.566;13.450;2023-02-12T11:33:34;78.07;;;41.07;;
840;SDS011;406;48.566;13.450;2023-02-12T11:36:03;73.10;;;33.90;;
840;SDS011;406;48.566;13.450;2023-02-12T11:38:35;85.60;;;41.73;;
840;SDS011;406;48.566;13.450;2023-02-12T11:44:36;79.67;;;36.60;;
840;SDS011;406;48.566;13.450;2023-02-12T11:47:00;72.70;;;34.00;;
840;SDS011;406;48.566;13.450;2023-02-12T11:49:32;77.83;;;35.87;;
840;SDS011;406;48.566;13.450;2023-02-12T11:52:02;55.90;;;30.47;;
840;SDS011;406;48.566;13.450;2023-02-12T11:54:31;72.93;;;34.90;;
840;SDS011;406;48.566;13.450;2023-02-12T11:57:02;68.03;;;35.57;;
840;SDS011;406;48.566;13.450;2023-02-12T12:01:55;64.97;;;35.80;;
840;SDS011;406;48.566;13.450;2023-02-12T12:04:25;54.80;;;31.67;;
840;SDS011;406;48.566;13.450;2023-02-12T12:09:42;73.93;;;39.27;;
840;SDS011;406;48.566;13.450;2023-02-12T12:14:48;78.60;;;40.70;;
840;SDS011;406;48.566;13.450;2023-02-12T12:17:50;81.60;;;39.10;;
840;SDS011;406;48.566;13.450;2023-02-12T12:20:48;70.83;;;39.57;;
840;SDS011;406;48.566;13.450;2023-02-12T12:23:19;68.53;;;37.97;;
840;SDS011;406;48.566;13.450;2023-02-12T12:25:48;66.63;;;36.80;;
840;SDS011;406;48.566;13.450;2023-02-12T12:39:02;68.03;;;36.50;;
840;SDS011;406;48.566;13.450;2023-02-12T12:41:52;57.77;;;36.20;;
840;SDS011;406;48.566;13.450;2023-02-12T13:09:12;46.70;;;26.07;;
840;SDS011;406;48.566;13.450;2023-02-12T13:12:24;43.50;;;27.07;;
840;SDS011;406;48.566;13.450;2023-02-12T13:15:02;49.40;;;28.27;;
840;SDS011;406;48.566;13.450;2023-02-12T13:23:13;38.67;;;23.00;;
840;SDS011;406;48.566;13.450;2023-02-12T13:28:23;35.93;;;21.80;;
840;SDS011;406;48.566;13.450;2023-02-12T13:30:59;38.80;;;23.20;;
840;SDS011;406;48.566;13.450;2023-02-12T13:33:27;32.63;;;21.93;;
840;SDS011;406;48.566;13.450;2023-02-12T13:35:55;37.83;;;22.83;;
840;SDS011;406;48.566;13.450;2023-02-12T13:41:26;43.27;;;22.90;;
840;SDS011;406;48.566;13.450;2023-02-12T13:44:02;45.00;;;23.77;;
840;SDS011;406;48.566;13.450;2023-02-12T13:47:10;37.77;;;23.40;;
840;SDS011;406;48.566;13.450;2023-02-12T13:50:00;35.90;;;22.97;;
840;SDS011;406;48.566;13.450;2023-02-12T13:52:44;33.90;;;21.40;;
840;SDS011;406;48.566;13.450;2023-02-12T13:55:26;33.90;;;19.27;;
840;SDS011;406;48.566;13.450;2023-02-12T14:03:34;40.27;;;22.90;;
840;SDS011;406;48.566;13.450;2023-02-12T14:06:15;34.30;;;20.77;;
840;SDS011;406;48.566;13.450;2023-02-12T14:08:47;32.20;;;20.13;;
840;SDS011;406;48.566;13.450;2023-02-12T14:11:17;36.97;;;22.47;;
840;SDS011;406;48.566;13.450;2023-02-12T14:13:47;33.17;;;20.00;;
840;SDS011;406;48.566;13.450;2023-02-12T14:21:59;30.63;;;21.00;;
840;SDS011;406;48.566;13.450;2023-02-12T14:27:05;36.23;;;23.40;;
840;SDS011;406;48.566;13.450;2023-02-12T14:35:33;38.63;;;23.07;;
840;SDS011;406;48.566;13.450;2023-02-12T14:38:01;37.10;;;22.77;;
840;SDS011;406;48.566;13.450;2023-02-12T14:42:59;42.77;;;25.53;;
840;SDS011;406;48.566;13.450;2023-02-12T14:45:36;38.87;;;24.20;;
840;SDS011;406;48.566;13.450;2023-02-12T14:48:03;36.63;;;23.53;;
840;SDS011;406;48.566;13.450;2023-02-12T14:50:35;38.50;;;24.83;;
840;SDS011;406;48.566;13.450;2023-02-12T14:53:05;34.10;;;20.90;;
840;SDS011;406;48.566;13.450;2023-02-12T14:55:39;40.07;;;22.97;;
840;SDS011;406;48.566;13.450;2023-02-12T14:58:15;38.97;;;23.43;;
840;SDS011;406;48.566;13.450;2023-02-12T15:00:45;36.83;;;21.90;;
840;SDS011;406;48.566;13.450;2023-02-12T15:05:48;40.33;;;23.43;;
840;SDS011;406;48.566;13.450;2023-02-12T15:16:28;45.60;;;24.60;;
840;SDS011;406;48.566;13.450;2023-02-12T15:19:01;37.00;;;23.80;;
840;SDS011;406;48.566;13.450;2023-02-12T15:21:36;38.33;;;22.70;;
840;SDS011;406;48.566;13.450;2023-02-12T15:26:39;36.13;;;22.23;;
840;SDS011;406;48.566;13.450;2023-02-12T15:29:14;39.83;;;21.37;;
840;SDS011;406;48.566;13.450;2023-02-12T15:31:50;49.37;;;24.60;;
840;SDS011;406;48.566;13.450;2023-02-12T15:34:20;39.60;;;25.30;;
840;SDS011;406;48.566;13.450;2023-02-12T15:36:49;43.70;;;25.10;;
840;SDS011;406;48.566;13.450;2023-02-12T15:39:17;46.47;;;23.23;;
840;SDS011;406;48.566;13.450;2023-02-12T15:41:48;43.47;;;24.83;;
840;SDS011;406;48.566;13.450;2023-02-12T15:44:20;37.47;;;22.90;;
840;SDS011;406;48.566;13.450;2023-02-12T15:46:52;43.77;;;23.40;;
840;SDS011;406;48.566;13.450;2023-02-12T15:49:27;43.37;;;24.83;;
840;SDS011;406;48.566;13.450;2023-02-12T15:51:56;46.70;;;26.57;;
840;SDS011;406;48.566;13.450;2023-02-12T15:54:24;50.10;;;27.70;;
840;SDS011;406;48.566;13.450;2023-02-12T15:56:51;55.47;;;28.50;;
840;SDS011;406;48.566;13.450;2023-02-12T15:59:20;52.60;;;27.13;;
840;SDS011;406;48.566;13.450;2023-02-12T16:01:52;47.93;;;28.77;;
840;SDS011;406;48.566;13.450;2023-02-12T16:04:21;44.83;;;26.03;;
840;SDS011;406;48.566;13.450;2023-02-12T16:06:48;51.27;;;26.40;;
840;SDS011;406;48.566;13.450;2023-02-12T16:09:49;49.33;;;27.23;;
840;SDS011;406;48.566;13.450;2023-02-12T16:12:11;50.57;;;27.00;;
840;SDS011;406;48.566;13.450;2023-02-12T16:14:39;52.37;;;29.33;;
840;SDS011;406;48.566;13.450;2023-02-12T16:17:44;46.50;;;28.37;;
840;SDS011;406;48.566;13.450;2023-02-12T16:20:05;45.83;;;27.83;;
840;SDS011;406;48.566;13.450;2023-02-12T16:22:42;48.83;;;27.13;;
840;SDS011;406;48.566;13.450;2023-02-12T16:25:16;53.20;;;28.83;;
840;SDS011;406;48.566;13.450;2023-02-12T16:27:50;50.73;;;26.97;;
840;SDS011;406;48.566;13.450;2023-02-12T16:30:26;49.93;;;29.70;;
840;SDS011;406;48.566;13.450;2023-02-12T16:32:57;51.57;;;28.23;;
840;SDS011;406;48.566;13.450;2023-02-12T16:35:33;51.13;;;28.57;;
840;SDS011;406;48.566;13.450;2023-02-12T16:41:32;57.80;;;27.17;;
840;SDS011;406;48.566;13.450;2023-02-12T16:46:25;52.17;;;27.13;;
840;SDS011;406;48.566;13.450;2023-02-12T16:48:53;49.40;;;28.13;;
840;SDS011;406;48.566;13.450;2023-02-12T16:53:51;53.93;;;27.47;;
840;SDS011;406;48.566;13.450;2023-02-12T16:56:20;44.90;;;25.03;;
840;SDS011;406;48.566;13.450;2023-02-12T16:58:48;46.77;;;26.67;;
840;SDS011;406;48.566;13.450;2023-02-12T17:01:18;51.17;;;27.13;;
840;SDS011;406;48.566;13.450;2023-02-12T17:03:46;48.43;;;26.30;;
840;SDS011;406;48.566;13.450;2023-02-12T17:06:16;43.13;;;27.20;;
840;SDS011;406;48.566;13.450;2023-02-12T17:08:44;50.17;;;27.00;;
840;SDS011;406;48.566;13.450;2023-02-12T17:11:10;49.30;;;24.40;;
840;SDS011;406;48.566;13.450;2023-02-12T17:13:37;48.07;;;24.80;;
840;SDS011;406;48.566;13.450;2023-02-12T17:16:03;44.70;;;23.57;;
840;SDS011;406;48.566;13.450;2023-02-12T17:18:30;42.63;;;22.33;;
840;SDS011;406;48.566;13.450;2023-02-12T17:20:58;41.00;;;22.07;;
840;SDS011;406;48.566;13.450;2023-02-12T17:23:28;48.60;;;25.57;;
840;SDS011;406;48.566;13.450;2023-02-12T17:25:55;40.57;;;24.23;;
840;SDS011;406;48.566;13.450;2023-02-12T17:28:22;36.73;;;21.73;;
840;SDS011;406;48.566;13.450;2023-02-12T17:30:50;41.00;;;21.20;;
840;SDS011;406;48.566;13.450;2023-02-12T17:33:18;37.30;;;21.43;;
840;SDS011;406;48.566;13.450;2023-02-12T17:35:45;38.50;;;21.27;;
840;SDS011;406;48.566;13.450;2023-02-12T17:38:11;39.57;;;22.33;;
840;SDS011;406;48.566;13.450;2023-02-12T17:40:38;35.17;;;20.87;;
840;SDS011;406;48.566;13.450;2023-02-12T17:43:05;43.77;;;21.50;;
840;SDS011;406;48.566;13.450;2023-02-12T17:45:32;28.60;;;18.17;;
840;SDS011;406;48.566;13.450;2023-02-12T17:47:58;38.60;;;21.00;;
840;SDS011;406;48.566;13.450;2023-02-12T17:50:25;40.77;;;21.13;;
840;SDS011;406;48.566;13.450;2023-02-12T17:52:51;34.53;;;22.07;;
840;SDS011;406;48.566;13.450;2023-02-12T17:55:18;39.87;;;21.70;;
840;SDS011;406;48.566;13.450;2023-02-12T17:57:44;38.23;;;22.53;;
840;SDS011;406;48.566;13.450;2023-02-12T18:00:11;35.53;;;19.80;;
840;SDS011;406;48.566;13.450;2023-02-12T18:02:38;36.20;;;20.27;;
840;SDS011;406;48.566;13.450;2023-02-12T18:05:05;29.47;;;17.50;;
840;SDS011;406;48.566;13.450;2023-02-12T18:07:32;42.13;;;20.57;;